EZS59GQ LFKJ-LSGG
Flight info
| Callsign | EZS59GQ |
|---|---|
| Flight time | 0h 57m |
| Altitude | 34000 |
| Route | LONSU M622 PIGOS DCT BARSO DCT IRMAR/N0392F280 DCT KINES |
| Aircraft | A320/M-SDE3FGHIRWY/LB1 |
Departure
| Time | 2026-04-25 12:20 |
|---|---|
| Airport | Ajaccio Napoléon Bonaparte airport (LFKJ) |
Arrival
| Time | 2026-04-25 13:17 |
|---|---|
| Airport | Geneva International Airport (LSGG) |
| Time | Latitude | Longitude | Altitude | Speed | Heading |
|---|---|---|---|---|---|
| 2026-04-25 12:04 | 41.91901 | 8.79542 | 26 ft | 0 kts | 346° |
| 2026-04-25 12:13 | 41.91897 | 8.79543 | 31 ft | 2 kts | 346° |
| 2026-04-25 12:13 | 41.91881 | 8.79549 | 32 ft | 2 kts | 346° |
| 2026-04-25 12:13 | 41.91864 | 8.79555 | 31 ft | 2 kts | 346° |
| 2026-04-25 12:13 | 41.91847 | 8.79560 | 29 ft | 2 kts | 346° |
| 2026-04-25 12:14 | 41.91831 | 8.79561 | 28 ft | 2 kts | 26° |
| 2026-04-25 12:14 | 41.91830 | 8.79560 | 28 ft | 0 kts | 26° |
| 2026-04-25 12:15 | 41.91831 | 8.79561 | 28 ft | 1 kts | 26° |
| 2026-04-25 12:15 | 41.91835 | 8.79563 | 29 ft | 2 kts | 26° |
| 2026-04-25 12:15 | 41.91868 | 8.79585 | 32 ft | 9 kts | 26° |
| 2026-04-25 12:15 | 41.91944 | 8.79635 | 29 ft | 14 kts | 25° |
| 2026-04-25 12:16 | 41.92031 | 8.79689 | 26 ft | 13 kts | 24° |
| 2026-04-25 12:16 | 41.92111 | 8.79741 | 26 ft | 12 kts | 26° |
| 2026-04-25 12:16 | 41.92185 | 8.79787 | 26 ft | 11 kts | 24° |
| 2026-04-25 12:16 | 41.92282 | 8.79848 | 30 ft | 22 kts | 25° |
| 2026-04-25 12:17 | 41.92420 | 8.79933 | 26 ft | 21 kts | 25° |
| 2026-04-25 12:17 | 41.92548 | 8.80010 | 26 ft | 19 kts | 24° |
| 2026-04-25 12:17 | 41.92666 | 8.80083 | 26 ft | 19 kts | 25° |
| 2026-04-25 12:17 | 41.92773 | 8.80163 | 27 ft | 16 kts | 35° |
| 2026-04-25 12:18 | 41.92854 | 8.80261 | 27 ft | 14 kts | 47° |
| 2026-04-25 12:18 | 41.92917 | 8.80348 | 29 ft | 12 kts | 44° |
| 2026-04-25 12:18 | 41.92961 | 8.80425 | 31 ft | 13 kts | 68° |
| 2026-04-25 12:18 | 41.92928 | 8.80565 | 31 ft | 13 kts | 139° |
| 2026-04-25 12:19 | 41.92747 | 8.80468 | 27 ft | 54 kts | 204° |
| 2026-04-25 12:19 | 41.91923 | 8.79954 | 21 ft | 139 kts | 205° |
| 2026-04-25 12:19 | 41.91006 | 8.79376 | 550 ft | 148 kts | 210° |
| 2026-04-25 12:20 | 41.90249 | 8.78480 | 1207 ft | 142 kts | 238° |
| 2026-04-25 12:20 | 41.89770 | 8.77362 | 1844 ft | 140 kts | 239° |
| 2026-04-25 12:20 | 41.89258 | 8.76145 | 2136 ft | 161 kts | 240° |
| 2026-04-25 12:20 | 41.88652 | 8.74711 | 2357 ft | 191 kts | 241° |
| 2026-04-25 12:21 | 41.87953 | 8.73071 | 2736 ft | 212 kts | 241° |
| 2026-04-25 12:21 | 41.87181 | 8.71278 | 3196 ft | 231 kts | 240° |
| 2026-04-25 12:21 | 41.86329 | 8.69320 | 3704 ft | 254 kts | 240° |
| 2026-04-25 12:21 | 41.85414 | 8.67235 | 4480 ft | 263 kts | 239° |
| 2026-04-25 12:22 | 41.84484 | 8.65079 | 5371 ft | 269 kts | 244° |
| 2026-04-25 12:22 | 41.84020 | 8.62643 | 6258 ft | 275 kts | 269° |
| 2026-04-25 12:22 | 41.84362 | 8.60152 | 7103 ft | 279 kts | 294° |
| 2026-04-25 12:22 | 41.85506 | 8.58018 | 7989 ft | 283 kts | 319° |
| 2026-04-25 12:23 | 41.87208 | 8.56693 | 8875 ft | 285 kts | 336° |
| 2026-04-25 12:23 | 41.89014 | 8.55639 | 9793 ft | 288 kts | 336° |
| 2026-04-25 12:23 | 41.90858 | 8.54561 | 10619 ft | 291 kts | 336° |
| 2026-04-25 12:23 | 41.92752 | 8.53447 | 11154 ft | 307 kts | 336° |
| 2026-04-25 12:24 | 41.94782 | 8.52248 | 11467 ft | 328 kts | 336° |
| 2026-04-25 12:24 | 41.96906 | 8.50990 | 12093 ft | 336 kts | 336° |
| 2026-04-25 12:24 | 41.99060 | 8.49712 | 12842 ft | 341 kts | 336° |
| 2026-04-25 12:24 | 42.01251 | 8.48411 | 13604 ft | 345 kts | 336° |
| 2026-04-25 12:25 | 42.03436 | 8.47113 | 14291 ft | 350 kts | 336° |
| 2026-04-25 12:25 | 42.05678 | 8.45775 | 14934 ft | 354 kts | 336° |
| 2026-04-25 12:25 | 42.07945 | 8.44422 | 15578 ft | 359 kts | 336° |
| 2026-04-25 12:25 | 42.10249 | 8.43051 | 16207 ft | 363 kts | 336° |
| 2026-04-25 12:26 | 42.12580 | 8.41666 | 16823 ft | 369 kts | 336° |
| 2026-04-25 12:26 | 42.14942 | 8.40260 | 17435 ft | 373 kts | 336° |
| 2026-04-25 12:26 | 42.17330 | 8.38839 | 18073 ft | 377 kts | 336° |
| 2026-04-25 12:26 | 42.19740 | 8.37402 | 18695 ft | 380 kts | 336° |
| 2026-04-25 12:27 | 42.22171 | 8.35948 | 19228 ft | 385 kts | 336° |
| 2026-04-25 12:27 | 42.24630 | 8.34473 | 19784 ft | 388 kts | 336° |
| 2026-04-25 12:27 | 42.27106 | 8.32988 | 20370 ft | 391 kts | 336° |
| 2026-04-25 12:27 | 42.29601 | 8.31489 | 20934 ft | 394 kts | 336° |
| 2026-04-25 12:28 | 42.32118 | 8.29977 | 21525 ft | 396 kts | 336° |
| 2026-04-25 12:28 | 42.34621 | 8.28475 | 22073 ft | 400 kts | 336° |
| 2026-04-25 12:28 | 42.37173 | 8.26940 | 22620 ft | 404 kts | 336° |
| 2026-04-25 12:28 | 42.39755 | 8.25386 | 23148 ft | 407 kts | 336° |
| 2026-04-25 12:29 | 42.42360 | 8.23819 | 23708 ft | 410 kts | 336° |
| 2026-04-25 12:29 | 42.44974 | 8.22246 | 24173 ft | 413 kts | 336° |
| 2026-04-25 12:29 | 42.47606 | 8.20659 | 24616 ft | 415 kts | 336° |
| 2026-04-25 12:29 | 42.50252 | 8.19061 | 25070 ft | 418 kts | 336° |
| 2026-04-25 12:30 | 42.52914 | 8.17450 | 25501 ft | 419 kts | 336° |
| 2026-04-25 12:30 | 42.55591 | 8.15829 | 25960 ft | 421 kts | 336° |
| 2026-04-25 12:30 | 42.58269 | 8.14207 | 26421 ft | 422 kts | 336° |
| 2026-04-25 12:30 | 42.60928 | 8.12594 | 26825 ft | 424 kts | 336° |
| 2026-04-25 12:31 | 42.63631 | 8.10954 | 27228 ft | 426 kts | 336° |
| 2026-04-25 12:31 | 42.66348 | 8.09303 | 27649 ft | 428 kts | 336° |
| 2026-04-25 12:31 | 42.69069 | 8.07644 | 28050 ft | 430 kts | 336° |
| 2026-04-25 12:31 | 42.71805 | 8.05973 | 28461 ft | 431 kts | 336° |
| 2026-04-25 12:32 | 42.74548 | 8.04301 | 28846 ft | 433 kts | 336° |
| 2026-04-25 12:32 | 42.77300 | 8.02624 | 29295 ft | 433 kts | 335° |
| 2026-04-25 12:32 | 42.80012 | 8.00837 | 29667 ft | 435 kts | 333° |
| 2026-04-25 12:32 | 42.82688 | 7.98886 | 30016 ft | 437 kts | 331° |
| 2026-04-25 12:33 | 42.85333 | 7.96835 | 30322 ft | 439 kts | 330° |
| 2026-04-25 12:33 | 42.87975 | 7.94740 | 30643 ft | 439 kts | 330° |
| 2026-04-25 12:33 | 42.90589 | 7.92669 | 30924 ft | 440 kts | 330° |
| 2026-04-25 12:33 | 42.93254 | 7.90584 | 31206 ft | 442 kts | 330° |
| 2026-04-25 12:34 | 42.95936 | 7.88513 | 31443 ft | 444 kts | 330° |
| 2026-04-25 12:34 | 42.98640 | 7.86452 | 31696 ft | 446 kts | 331° |
| 2026-04-25 12:34 | 43.01346 | 7.84402 | 32033 ft | 445 kts | 330° |
| 2026-04-25 12:34 | 43.03144 | 7.83040 | 32288 ft | 444 kts | 331° |
| 2026-04-25 12:35 | 43.06749 | 7.80307 | 32755 ft | 443 kts | 330° |
| 2026-04-25 12:35 | 43.09438 | 7.78255 | 33101 ft | 442 kts | 330° |
| 2026-04-25 12:35 | 43.12122 | 7.76188 | 33438 ft | 442 kts | 330° |
| 2026-04-25 12:35 | 43.14797 | 7.74114 | 33760 ft | 442 kts | 330° |
| 2026-04-25 12:36 | 43.17473 | 7.72032 | 34063 ft | 442 kts | 329° |
| 2026-04-25 12:36 | 43.22707 | 7.67961 | 34108 ft | 425 kts | 330° |
| 2026-04-25 12:37 | 43.27809 | 7.63991 | 34106 ft | 423 kts | 329° |
| 2026-04-25 12:37 | 43.32929 | 7.60010 | 34120 ft | 422 kts | 330° |
| 2026-04-25 12:38 | 43.38046 | 7.56038 | 34116 ft | 422 kts | 330° |
| 2026-04-25 12:38 | 43.43179 | 7.52052 | 34119 ft | 423 kts | 329° |
| 2026-04-25 12:39 | 43.48298 | 7.48052 | 34107 ft | 423 kts | 329° |
| 2026-04-25 12:39 | 43.53385 | 7.44062 | 34107 ft | 423 kts | 329° |
| 2026-04-25 12:40 | 43.58507 | 7.40043 | 34113 ft | 423 kts | 329° |
| 2026-04-25 12:40 | 43.63604 | 7.35984 | 34121 ft | 422 kts | 327° |
| 2026-04-25 12:41 | 43.68521 | 7.31576 | 34125 ft | 421 kts | 324° |
| 2026-04-25 12:41 | 43.73353 | 7.27002 | 34122 ft | 421 kts | 324° |
| 2026-04-25 12:42 | 43.78172 | 7.22499 | 34124 ft | 421 kts | 325° |
| 2026-04-25 12:42 | 43.83052 | 7.18019 | 34120 ft | 420 kts | 325° |
| 2026-04-25 12:43 | 43.87926 | 7.13553 | 34112 ft | 420 kts | 325° |
| 2026-04-25 12:43 | 43.95223 | 7.06824 | 34088 ft | 420 kts | 325° |
| 2026-04-25 12:44 | 44.00072 | 7.02318 | 34078 ft | 420 kts | 325° |
| 2026-04-25 12:45 | 44.07349 | 6.95564 | 34078 ft | 419 kts | 324° |
| 2026-04-25 12:45 | 44.14908 | 6.89525 | 34068 ft | 421 kts | 340° |
| 2026-04-25 12:46 | 44.20684 | 6.88079 | 34062 ft | 424 kts | 352° |
| 2026-04-25 12:46 | 44.26542 | 6.87210 | 34057 ft | 423 kts | 352° |
| 2026-04-25 12:47 | 44.32412 | 6.86318 | 34062 ft | 423 kts | 352° |
| 2026-04-25 12:47 | 44.38234 | 6.85435 | 34061 ft | 424 kts | 352° |
| 2026-04-25 12:48 | 44.44093 | 6.84541 | 34060 ft | 423 kts | 351° |
| 2026-04-25 12:48 | 44.49949 | 6.83644 | 34064 ft | 424 kts | 351° |
| 2026-04-25 12:49 | 44.55813 | 6.82746 | 34058 ft | 424 kts | 351° |
| 2026-04-25 12:49 | 44.61678 | 6.81861 | 34056 ft | 424 kts | 351° |
| 2026-04-25 12:50 | 44.67548 | 6.80971 | 34056 ft | 424 kts | 351° |
| 2026-04-25 12:50 | 44.73414 | 6.80064 | 34056 ft | 424 kts | 351° |
| 2026-04-25 12:51 | 44.79279 | 6.79158 | 34060 ft | 424 kts | 351° |
| 2026-04-25 12:51 | 44.85163 | 6.78522 | 34062 ft | 424 kts | 354° |
| 2026-04-25 12:52 | 44.91036 | 6.78231 | 34066 ft | 424 kts | 355° |
| 2026-04-25 12:52 | 44.96936 | 6.77944 | 34071 ft | 423 kts | 355° |
| 2026-04-25 12:53 | 45.02829 | 6.77570 | 34080 ft | 424 kts | 354° |
| 2026-04-25 12:53 | 45.08716 | 6.77162 | 34088 ft | 423 kts | 354° |
| 2026-04-25 12:54 | 45.14604 | 6.76752 | 34098 ft | 423 kts | 354° |
| 2026-04-25 12:54 | 45.20485 | 6.76365 | 34116 ft | 423 kts | 354° |
| 2026-04-25 12:55 | 45.23418 | 6.76176 | 33933 ft | 420 kts | 354° |
| 2026-04-25 12:55 | 45.24369 | 6.76115 | 33845 ft | 419 kts | 354° |
| 2026-04-25 12:55 | 45.29192 | 6.75804 | 33168 ft | 410 kts | 354° |
| 2026-04-25 12:55 | 45.32029 | 6.75617 | 32672 ft | 406 kts | 353° |
| 2026-04-25 12:56 | 45.34801 | 6.75106 | 32183 ft | 399 kts | 346° |
| 2026-04-25 12:56 | 45.37488 | 6.74370 | 31699 ft | 397 kts | 346° |
| 2026-04-25 12:56 | 45.40188 | 6.73629 | 31223 ft | 394 kts | 346° |
| 2026-04-25 12:56 | 45.42871 | 6.72897 | 30744 ft | 391 kts | 347° |
| 2026-04-25 12:57 | 45.45545 | 6.72168 | 30276 ft | 389 kts | 347° |
| 2026-04-25 12:57 | 45.48197 | 6.71451 | 29767 ft | 386 kts | 347° |
| 2026-04-25 12:57 | 45.50816 | 6.70743 | 29320 ft | 381 kts | 347° |
| 2026-04-25 12:57 | 45.53408 | 6.70038 | 28865 ft | 377 kts | 347° |
| 2026-04-25 12:58 | 45.55109 | 6.69582 | 28575 ft | 374 kts | 347° |
| 2026-04-25 12:58 | 45.57656 | 6.68912 | 28142 ft | 370 kts | 347° |
| 2026-04-25 12:58 | 45.60181 | 6.68259 | 27712 ft | 367 kts | 348° |
| 2026-04-25 12:58 | 45.62681 | 6.67620 | 27274 ft | 363 kts | 348° |
| 2026-04-25 12:59 | 45.65161 | 6.66986 | 26844 ft | 360 kts | 348° |
| 2026-04-25 12:59 | 45.67619 | 6.66359 | 26397 ft | 358 kts | 348° |
| 2026-04-25 12:59 | 45.70057 | 6.65734 | 25958 ft | 355 kts | 348° |
| 2026-04-25 12:59 | 45.72483 | 6.65106 | 25510 ft | 353 kts | 348° |
| 2026-04-25 13:00 | 45.74902 | 6.64476 | 25036 ft | 352 kts | 348° |
| 2026-04-25 13:00 | 45.76500 | 6.64053 | 24739 ft | 351 kts | 348° |
| 2026-04-25 13:00 | 45.79705 | 6.63187 | 24087 ft | 349 kts | 348° |
| 2026-04-25 13:00 | 45.82091 | 6.62535 | 23586 ft | 349 kts | 348° |
| 2026-04-25 13:01 | 45.84472 | 6.61884 | 23059 ft | 347 kts | 348° |
| 2026-04-25 13:01 | 45.86836 | 6.61240 | 22579 ft | 344 kts | 348° |
| 2026-04-25 13:01 | 45.89179 | 6.60604 | 22111 ft | 341 kts | 348° |
| 2026-04-25 13:01 | 45.91506 | 6.59973 | 21642 ft | 339 kts | 348° |
| 2026-04-25 13:02 | 45.93817 | 6.59342 | 21185 ft | 336 kts | 348° |
| 2026-04-25 13:02 | 45.96072 | 6.58727 | 20733 ft | 333 kts | 348° |
| 2026-04-25 13:02 | 45.98341 | 6.58111 | 20294 ft | 332 kts | 349° |
| 2026-04-25 13:02 | 46.00610 | 6.57494 | 19843 ft | 330 kts | 349° |
| 2026-04-25 13:03 | 46.02847 | 6.56776 | 19398 ft | 329 kts | 341° |
| 2026-04-25 13:03 | 46.04892 | 6.55333 | 18959 ft | 329 kts | 327° |
| 2026-04-25 13:03 | 46.06605 | 6.53134 | 18503 ft | 332 kts | 312° |
| 2026-04-25 13:03 | 46.07948 | 6.50425 | 17994 ft | 333 kts | 307° |
| 2026-04-25 13:04 | 46.09242 | 6.47673 | 17545 ft | 330 kts | 306° |
| 2026-04-25 13:04 | 46.10524 | 6.44937 | 17127 ft | 327 kts | 307° |
| 2026-04-25 13:04 | 46.11793 | 6.42226 | 16715 ft | 325 kts | 307° |
| 2026-04-25 13:04 | 46.13060 | 6.39532 | 16298 ft | 324 kts | 307° |
| 2026-04-25 13:05 | 46.14324 | 6.36851 | 15869 ft | 323 kts | 307° |
| 2026-04-25 13:05 | 46.15583 | 6.34181 | 15466 ft | 322 kts | 307° |
| 2026-04-25 13:05 | 46.16954 | 6.31628 | 14932 ft | 321 kts | 320° |
| 2026-04-25 13:05 | 46.18850 | 6.30000 | 14463 ft | 317 kts | 345° |
| 2026-04-25 13:06 | 46.20983 | 6.29682 | 14329 ft | 304 kts | 7° |
| 2026-04-25 13:06 | 46.22964 | 6.30531 | 13983 ft | 295 kts | 28° |
| 2026-04-25 13:06 | 46.24531 | 6.32350 | 13291 ft | 293 kts | 44° |
| 2026-04-25 13:06 | 46.25953 | 6.34457 | 12651 ft | 290 kts | 45° |
| 2026-04-25 13:07 | 46.27338 | 6.36519 | 12222 ft | 281 kts | 45° |
| 2026-04-25 13:07 | 46.28707 | 6.38556 | 11811 ft | 283 kts | 45° |
| 2026-04-25 13:07 | 46.30086 | 6.40598 | 11393 ft | 285 kts | 45° |
| 2026-04-25 13:07 | 46.31470 | 6.42654 | 11038 ft | 284 kts | 45° |
| 2026-04-25 13:08 | 46.32848 | 6.44697 | 10657 ft | 284 kts | 46° |
| 2026-04-25 13:08 | 46.34230 | 6.46745 | 10287 ft | 284 kts | 46° |
| 2026-04-25 13:08 | 46.35581 | 6.48736 | 10097 ft | 269 kts | 46° |
| 2026-04-25 13:08 | 46.36874 | 6.50644 | 9637 ft | 263 kts | 46° |
| 2026-04-25 13:09 | 46.38131 | 6.52517 | 9412 ft | 256 kts | 46° |
| 2026-04-25 13:09 | 46.39444 | 6.54208 | 9354 ft | 247 kts | 29° |
| 2026-04-25 13:09 | 46.41023 | 6.55046 | 9300 ft | 242 kts | 6° |
| 2026-04-25 13:09 | 46.42683 | 6.54882 | 9245 ft | 240 kts | 341° |
| 2026-04-25 13:10 | 46.44136 | 6.53755 | 9197 ft | 238 kts | 317° |
| 2026-04-25 13:10 | 46.45139 | 6.51878 | 9140 ft | 237 kts | 294° |
| 2026-04-25 13:10 | 46.45709 | 6.49630 | 8904 ft | 241 kts | 288° |
| 2026-04-25 13:10 | 46.46201 | 6.47319 | 8417 ft | 236 kts | 278° |
| 2026-04-25 13:11 | 46.46152 | 6.44982 | 8107 ft | 232 kts | 256° |
| 2026-04-25 13:11 | 46.45492 | 6.42864 | 7709 ft | 232 kts | 234° |
| 2026-04-25 13:11 | 46.44387 | 6.41156 | 7304 ft | 234 kts | 226° |
| 2026-04-25 13:11 | 46.43235 | 6.39481 | 6929 ft | 235 kts | 227° |
| 2026-04-25 13:12 | 46.42096 | 6.37817 | 6533 ft | 236 kts | 227° |
| 2026-04-25 13:12 | 46.40935 | 6.36118 | 6019 ft | 236 kts | 227° |
| 2026-04-25 13:12 | 46.39786 | 6.34436 | 5518 ft | 233 kts | 227° |
| 2026-04-25 13:12 | 46.39032 | 6.33331 | 5189 ft | 232 kts | 226° |
| 2026-04-25 13:13 | 46.37521 | 6.31117 | 4610 ft | 226 kts | 227° |
| 2026-04-25 13:13 | 46.36428 | 6.29504 | 4494 ft | 225 kts | 227° |
| 2026-04-25 13:13 | 46.35333 | 6.27885 | 4236 ft | 225 kts | 227° |
| 2026-04-25 13:13 | 46.34239 | 6.26268 | 3938 ft | 224 kts | 227° |
| 2026-04-25 13:14 | 46.33151 | 6.24660 | 3647 ft | 223 kts | 227° |
| 2026-04-25 13:14 | 46.32089 | 6.23093 | 3366 ft | 217 kts | 227° |
| 2026-04-25 13:14 | 46.31056 | 6.21571 | 3088 ft | 207 kts | 226° |
| 2026-04-25 13:14 | 46.30081 | 6.20134 | 2839 ft | 190 kts | 227° |
| 2026-04-25 13:15 | 46.29199 | 6.18834 | 2590 ft | 172 kts | 226° |
| 2026-04-25 13:15 | 46.28405 | 6.17665 | 2361 ft | 155 kts | 226° |
| 2026-04-25 13:15 | 46.27671 | 6.16583 | 2157 ft | 147 kts | 225° |
| 2026-04-25 13:15 | 46.26962 | 6.15532 | 1956 ft | 145 kts | 224° |
| 2026-04-25 13:16 | 46.26264 | 6.14490 | 1729 ft | 142 kts | 222° |
| 2026-04-25 13:16 | 46.25559 | 6.13467 | 1515 ft | 143 kts | 221° |
| 2026-04-25 13:16 | 46.24854 | 6.12447 | 1407 ft | 142 kts | 223° |
| 2026-04-25 13:16 | 46.24233 | 6.11505 | 1376 ft | 115 kts | 223° |
| 2026-04-25 13:17 | 46.23849 | 6.10961 | 1379 ft | 34 kts | 225° |
| 2026-04-25 13:17 | 46.23673 | 6.10769 | 1381 ft | 31 kts | 204° |
| 2026-04-25 13:17 | 46.23542 | 6.10707 | 1386 ft | 0 kts | 196° |
| 2026-04-25 13:19 | 46.23541 | 6.10706 | 1386 ft | 1 kts | 196° |
| 2026-04-25 13:19 | 46.23485 | 6.10683 | 1388 ft | 14 kts | 196° |
| 2026-04-25 13:19 | 46.23398 | 6.10632 | 1400 ft | 13 kts | 212° |
| 2026-04-25 13:19 | 46.23356 | 6.10580 | 1392 ft | 11 kts | 223° |
| 2026-04-25 13:20 | 46.23288 | 6.10482 | 1396 ft | 9 kts | 225° |
| 2026-04-25 13:20 | 46.23245 | 6.10418 | 1393 ft | 10 kts | 226° |
| 2026-04-25 13:20 | 46.23165 | 6.10351 | 1393 ft | 12 kts | 156° |
| 2026-04-25 13:20 | 46.23108 | 6.10432 | 1400 ft | 13 kts | 138° |
| 2026-04-25 13:21 | 46.23049 | 6.10480 | 1395 ft | 5 kts | 176° |
| 2026-04-25 13:21 | 46.23025 | 6.10504 | 1394 ft | 4 kts | 137° |
| 2026-04-25 13:21 | 46.23010 | 6.10525 | 1396 ft | 3 kts | 136° |
| 2026-04-25 13:21 | 46.23009 | 6.10527 | 1397 ft | 0 kts | 135° |